Accueil
METAR-TAF:

METAR-TAF

Aéroports :

Nikolai, Alaska, États-Unis

latitude: 63-01-07N, longitude: 154-21-30W, altitude: 134 m

Observation

Le bulletin a été fait il y a 39 minutes, à 22:01 UTC
Vent calme
Température -25°C
Humidité 76%
Pression 1010 hPa
Visibilité: 14.5 km
Quelques nuages à une hauteur de 4200 ft
Ciel couvert à une hauteur de 8500 ft
neige faible

METAR: PAFS 222201Z AUTO 00000KT 9SM -SN FEW042 OVC085 M25/M28 A2982 RMK AO2 SLP119 P0000 T12501278 FZRANO

Heure: 13:40 (22:40 UTC)


TAF: absent

Observations et prévisions météorologiques de plus de 4000 aéroports (messages METAR et TAF).

Les stations disponibles sont représentées par des disques jaunes et rouges sur la carte.

Passer la souris dessus pour voir le nom de la station.

Cliquer dessus pour voir les observations et prévisions météorologiques.

Pour changer de carte: cliquez sur les boutons verts avec une croix noire pour zoomer, sur le bouton vert avec un tiret pour effectuer un zoom arrière, ou sur les flèches vertes pour les cartes adjacentes.


METAR-TAF: